Time;durP1;ratioP1;P1;durP2;ratioP2;P2;SDS_P1;SDS_P2;PMS_P1;PMS_P2;Temp;Humidity;BMP_temperature;BMP_pressure;BME280_temperature;BME280_humidity;BME280_pressure;Samples;Min_cycle;Max_cycle;Signal;HPM_P1;HPM_P2
2022/05/20 00:00:33;;;;;;;7.05;2.75;;;;;;;29.36;34.52;97157.81;5057967;28;20090;-31
2022/05/20 00:02:58;;;;;;;5.20;2.85;;;;;;;29.37;34.56;97159.50;5057933;28;20758;-32
2022/05/20 00:05:24;;;;;;;8.43;2.70;;;;;;;29.39;34.50;97165.56;5061440;28;21191;-31
2022/05/20 00:07:50;;;;;;;5.88;2.85;;;;;;;29.39;34.55;97162.91;5058224;28;20031;-33
2022/05/20 00:10:15;;;;;;;4.95;3.00;;;;;;;29.41;34.41;97160.19;5051770;28;20032;-31
2022/05/20 00:12:41;;;;;;;6.60;2.80;;;;;;;29.41;34.53;97161.00;5057603;28;20023;-30
2022/05/20 00:15:07;;;;;;;5.43;2.40;;;;;;;29.41;34.57;97145.16;5059171;28;20156;-32
2022/05/20 00:17:33;;;;;;;5.00;2.63;;;;;;;29.41;34.30;97155.72;5054702;28;20691;-32
2022/05/20 00:19:59;;;;;;;3.85;2.33;;;;;;;29.42;34.29;97152.16;5062829;28;20371;-31
2022/05/20 00:22:24;;;;;;;4.43;2.63;;;;;;;29.42;34.51;97151.31;5061222;28;20082;-31
2022/05/20 00:27:34;;;;;;;5.43;2.88;;;;;;;29.44;34.16;97154.69;5058644;28;20039;-31
2022/05/20 00:29:59;;;;;;;4.38;2.40;;;;;;;29.44;34.39;97152.91;5059167;28;20032;-32
2022/05/20 00:32:25;;;;;;;6.07;2.90;;;;;;;29.45;34.56;97145.84;5055413;28;20143;-35
2022/05/20 00:34:50;;;;;;;4.57;2.70;;;;;;;29.46;34.25;97151.03;5062678;28;20039;-30
2022/05/20 00:37:16;;;;;;;6.50;2.72;;;;;;;29.46;34.44;97143.13;5057497;28;20132;-36
2022/05/20 00:39:41;;;;;;;5.07;2.47;;;;;;;29.46;34.37;97140.47;5054121;28;20031;-32
2022/05/20 00:42:15;;;;;;;6.35;2.90;;;;;;;29.46;34.47;97137.84;5055935;28;20039;-32
2022/05/20 00:44:40;;;;;;;9.02;3.03;;;;;;;29.45;34.12;97146.69;5059470;28;20412;-32
2022/05/20 00:47:06;;;;;;;4.00;2.65;;;;;;;29.46;34.25;97137.84;5057381;28;20485;-32
2022/05/20 00:49:31;;;;;;;5.10;3.10;;;;;;;29.46;34.18;97132.56;5062764;28;20422;-32
2022/05/20 00:51:58;;;;;;;4.30;2.53;;;;;;;29.46;34.46;97140.47;5061028;28;20036;-30
2022/05/20 00:54:29;;;;;;;3.88;2.30;;;;;;;29.44;34.34;97145.00;5058104;28;20024;-31
2022/05/20 00:57:02;;;;;;;5.60;2.85;;;;;;;29.48;34.63;97132.44;5055531;28;20028;-32
2022/05/20 00:59:29;;;;;;;4.13;2.70;;;;;;;29.48;34.12;97137.72;5057675;28;20772;-34
2022/05/20 01:01:55;;;;;;;6.85;2.90;;;;;;;29.47;34.37;97128.97;5059298;28;20116;-32
2022/05/20 01:04:21;;;;;;;7.43;2.60;;;;;;;29.47;34.10;97123.69;5059458;28;20046;-32
2022/05/20 01:06:46;;;;;;;6.57;2.88;;;;;;;29.48;34.44;97117.44;5041348;28;20020;-31
2022/05/20 01:09:11;;;;;;;4.65;2.63;;;;;;;29.48;34.55;97120.09;5057502;28;20058;-32
2022/05/20 01:11:37;;;;;;;5.32;2.63;;;;;;;29.48;34.45;97114.81;5064052;28;20029;-31
2022/05/20 01:14:03;;;;;;;5.30;2.85;;;;;;;29.48;34.24;97130.66;5059228;28;20028;-33
2022/05/20 01:16:28;;;;;;;8.18;2.85;;;;;;;29.50;34.23;97127.06;5057233;28;20126;-31
2022/05/20 01:18:56;;;;;;;4.25;2.60;;;;;;;29.50;34.67;97133.19;5058068;28;20051;-31
2022/05/20 01:21:21;;;;;;;3.70;2.47;;;;;;;29.51;34.15;97123.47;5055235;28;20127;-31
2022/05/20 01:23:47;;;;;;;5.35;2.53;;;;;;;29.51;34.29;97123.47;5051971;28;20027;-31
2022/05/20 01:26:12;;;;;;;5.07;2.67;;;;;;;29.51;34.55;97134.91;5055036;28;20759;-33
2022/05/20 01:28:38;;;;;;;6.10;2.50;;;;;;;29.51;34.39;97128.75;5058594;28;20061;-31
2022/05/20 01:31:10;;;;;;;5.57;2.72;;;;;;;29.52;34.21;97130.50;5058436;28;20555;-30
2022/05/20 01:33:38;;;;;;;6.22;3.15;;;;;;;29.52;34.10;97119.94;5061490;28;20407;-31
2022/05/20 01:36:07;;;;;;;4.97;2.78;;;;;;;29.53;34.21;97124.25;5058904;28;20028;-32
2022/05/20 01:38:32;;;;;;;9.15;2.60;;;;;;;29.52;34.10;97119.94;5057780;28;20028;-33
2022/05/20 01:41:22;;;;;;;6.68;3.13;;;;;;;29.52;34.24;97125.22;5055216;28;20040;-31
2022/05/20 01:44:09;;;;;;;5.75;2.65;;;;;;;29.52;34.19;97109.38;5055988;28;20044;-32
2022/05/20 01:46:41;;;;;;;4.78;2.70;;;;;;;29.51;34.50;97118.19;5053509;28;20085;-31
2022/05/20 01:49:16;;;;;;;10.65;3.15;;;;;;;29.50;34.44;97116.50;5056702;28;20032;-32
2022/05/20 01:52:00;;;;;;;3.83;2.80;;;;;;;29.50;34.46;97116.50;5057303;28;20052;-33
2022/05/20 01:54:40;;;;;;;10.38;2.63;;;;;;;29.48;34.27;97113.94;5057202;28;20040;-30
2022/05/20 01:57:20;;;;;;;5.43;2.88;;;;;;;29.48;34.20;97114.81;5053684;28;20490;-31
2022/05/20 01:59:48;;;;;;;7.18;2.97;;;;;;;29.48;34.55;97109.53;5059386;28;20044;-31
2022/05/20 02:02:27;;;;;;;4.97;3.00;;;;;;;29.48;34.67;97117.44;5062485;28;20537;-31
2022/05/20 02:04:59;;;;;;;5.07;2.53;;;;;;;29.46;34.60;97108.78;5057776;28;20101;-31
2022/05/20 02:07:27;;;;;;;5.25;3.05;;;;;;;29.47;34.60;97107.84;5055004;28;20028;-32
2022/05/20 02:10:01;;;;;;;4.85;2.75;;;;;;;29.48;34.64;97108.66;5051750;28;20600;-29
2022/05/20 02:12:28;;;;;;;5.07;2.85;;;;;;;29.48;34.25;97103.38;5056177;28;20028;-31
2022/05/20 02:15:30;;;;;;;4.97;2.75;;;;;;;29.47;34.58;97101.69;5059299;28;20131;-33
2022/05/20 02:17:58;;;;;;;4.68;2.60;;;;;;;29.48;34.15;97098.97;5037911;28;20040;-33
2022/05/20 02:20:36;;;;;;;4.18;2.95;;;;;;;29.47;34.54;97102.56;5037864;28;20036;-32
2022/05/20 02:23:04;;;;;;;5.00;2.55;;;;;;;29.47;34.63;97107.84;5039915;28;20774;-30
2022/05/20 02:25:31;;;;;;;4.18;2.63;;;;;;;29.48;34.38;97098.97;5046258;28;20029;-32
2022/05/20 02:28:01;;;;;;;5.45;2.63;;;;;;;29.48;34.22;97109.53;5047863;28;20090;-31
2022/05/20 02:30:28;;;;;;;4.68;2.50;;;;;;;29.49;34.36;97107.75;5054047;28;20032;-31
2022/05/20 02:33:14;;;;;;;4.28;2.35;;;;;;;29.50;34.19;97105.94;5056721;28;20143;-33
2022/05/20 02:35:39;;;;;;;4.95;2.83;;;;;;;29.51;34.63;97107.63;5057104;28;20047;-33
2022/05/20 02:38:18;;;;;;;4.43;2.38;;;;;;;29.49;34.47;97105.09;5059429;28;20020;-30
2022/05/20 02:40:46;;;;;;;3.35;2.30;;;;;;;29.50;34.30;97106.78;5056315;28;20090;-30
2022/05/20 02:43:12;;;;;;;3.92;2.53;;;;;;;29.52;34.54;97109.38;5058586;28;20035;-34
2022/05/20 02:45:38;;;;;;;4.20;2.80;;;;;;;29.51;34.03;97110.25;5059336;28;20036;-31
2022/05/20 02:48:03;;;;;;;4.38;2.72;;;;;;;29.51;34.61;97105.88;5057888;28;20182;-31
2022/05/20 02:50:29;;;;;;;3.92;2.58;;;;;;;29.52;34.44;97098.81;5055249;28;20054;-30
2022/05/20 02:52:54;;;;;;;4.57;2.65;;;;;;;29.53;34.29;97100.50;5051842;28;20047;-33
2022/05/20 02:55:20;;;;;;;4.75;2.92;;;;;;;29.53;34.60;97095.22;5058213;28;20035;-32
2022/05/20 02:57:45;;;;;;;3.85;2.55;;;;;;;29.53;34.12;97100.50;5054490;28;20068;-31
2022/05/20 03:05:39;;;;;;;5.30;2.72;;;;;;;29.53;34.39;97089.94;5055712;28;20031;-30
2022/05/20 03:08:05;;;;;;;3.63;2.50;;;;;;;29.53;34.03;97089.94;5053515;28;20458;-33
2022/05/20 03:10:30;;;;;;;5.47;2.70;;;;;;;29.53;34.24;97090.78;5054880;28;20055;-32
2022/05/20 03:12:59;;;;;;;7.18;2.75;;;;;;;29.53;34.54;97095.22;5056920;28;20024;-35
2022/05/20 03:15:25;;;;;;;4.63;2.70;;;;;;;29.54;34.32;97096.91;5050057;28;20036;-32
2022/05/20 03:17:50;;;;;;;3.67;2.20;;;;;;;29.54;34.42;97102.19;5055781;28;20040;-33
2022/05/20 03:20:16;;;;;;;4.43;2.60;;;;;;;29.54;34.52;97099.53;5058181;28;20481;-32
2022/05/20 03:22:41;;;;;;;2.97;2.40;;;;;;;29.54;34.54;97094.25;5060447;28;20500;-31
2022/05/20 03:25:07;;;;;;;5.60;2.70;;;;;;;29.54;34.39;97099.53;5059795;28;20039;-30
2022/05/20 03:27:32;;;;;;;2.95;2.30;;;;;;;29.54;34.18;97103.03;5058996;28;20032;-30
2022/05/20 03:29:58;;;;;;;4.75;2.72;;;;;;;29.54;34.49;97100.41;5059611;28;20434;-33
2022/05/20 03:32:24;;;;;;;6.68;2.92;;;;;;;29.54;34.57;97097.75;5058328;28;20032;-33
2022/05/20 03:34:49;;;;;;;5.75;2.80;;;;;;;29.54;34.06;97097.75;5058660;28;20127;-32
2022/05/20 03:37:15;;;;;;;4.50;2.65;;;;;;;29.54;34.19;97091.63;5059492;28;20900;-30
2022/05/20 03:39:40;;;;;;;6.85;2.80;;;;;;;29.53;34.39;97095.22;5053636;28;20491;-32
2022/05/20 03:42:06;;;;;;;5.30;2.80;;;;;;;29.54;34.29;97096.91;5050522;28;20032;-34
2022/05/20 03:44:31;;;;;;;5.75;3.00;;;;;;;29.53;34.34;97098.72;5056910;28;20071;-33
2022/05/20 03:46:58;;;;;;;3.95;2.53;;;;;;;29.52;34.13;97104.91;5055628;28;20032;-32
2022/05/20 03:49:26;;;;;;;7.28;2.90;;;;;;;29.51;34.17;97092.66;5060807;28;20036;-31
2022/05/20 03:51:51;;;;;;;6.13;2.80;;;;;;;29.52;34.24;97102.28;5052263;28;20032;-30
2022/05/20 03:54:18;;;;;;;3.30;2.47;;;;;;;29.53;34.28;97097.84;5056528;28;20028;-31
2022/05/20 03:56:43;;;;;;;4.18;2.50;;;;;;;29.53;34.48;97103.13;5063061;28;20107;-31
2022/05/20 03:59:09;;;;;;;3.10;2.40;;;;;;;29.53;34.45;97100.50;5061122;28;20048;-34
2022/05/20 04:04:19;;;;;;;8.23;3.00;;;;;;;29.53;34.44;97097.84;5060779;28;20092;-32
2022/05/20 04:06:44;;;;;;;3.83;2.55;;;;;;;29.52;34.31;97094.34;5057318;28;20454;-30
2022/05/20 04:09:10;;;;;;;6.05;3.08;;;;;;;29.53;34.35;97100.50;5060700;28;20028;-32
2022/05/20 04:11:35;;;;;;;8.13;3.10;;;;;;;29.51;34.44;97097.06;5049692;28;20028;-30
2022/05/20 04:14:01;;;;;;;10.10;3.45;;;;;;;29.51;34.24;97089.13;5057206;28;20028;-30
2022/05/20 04:16:26;;;;;;;7.47;3.55;;;;;;;29.50;34.52;97092.72;5057819;28;20059;-33
2022/05/20 04:18:52;;;;;;;5.05;3.17;;;;;;;29.49;34.47;97097.19;5049600;28;20032;-31
2022/05/20 04:21:17;;;;;;;4.78;3.20;;;;;;;29.47;34.37;97094.63;5060042;28;20051;-31
2022/05/20 04:23:43;;;;;;;5.70;3.33;;;;;;;29.47;34.34;97099.06;5058303;28;20760;-30
2022/05/20 04:26:09;;;;;;;3.38;2.90;;;;;;;29.46;34.38;97094.72;5058096;28;20036;-32
2022/05/20 04:28:34;;;;;;;5.03;2.90;;;;;;;29.45;34.61;97093.88;5057118;28;20811;-39
2022/05/20 04:31:01;;;;;;;3.47;2.70;;;;;;;29.44;34.40;97097.47;5055023;28;20139;-34
2022/05/20 04:33:26;;;;;;;4.03;2.88;;;;;;;29.44;34.65;97102.75;5055526;28;20032;-31
2022/05/20 04:35:52;;;;;;;4.35;2.83;;;;;;;29.43;34.58;97094.91;5056759;28;20032;-32
2022/05/20 04:38:17;;;;;;;6.25;2.97;;;;;;;29.42;34.62;97093.22;5062136;28;20024;-31
2022/05/20 04:40:43;;;;;;;4.68;2.80;;;;;;;29.42;34.26;97090.59;5056562;28;20035;-35
2022/05/20 04:48:36;;;;;;;3.45;2.60;;;;;;;29.41;34.21;97094.19;5052596;28;20046;-31
2022/05/20 04:51:02;;;;;;;4.75;2.60;;;;;;;29.42;34.23;97094.09;5055823;28;20032;-33
2022/05/20 04:56:11;;;;;;;4.30;2.80;;;;;;;29.42;34.35;97094.09;5057443;28;20113;-32
2022/05/20 04:58:37;;;;;;;4.20;3.05;;;;;;;29.41;34.43;97092.38;5060064;28;20243;-33
2022/05/20 05:01:02;;;;;;;4.32;2.78;;;;;;;29.42;34.26;97096.72;5060119;28;20023;-30
2022/05/20 05:03:27;;;;;;;6.18;3.10;;;;;;;29.41;34.50;97097.66;5059821;28;20044;-34
2022/05/20 05:05:53;;;;;;;7.15;2.90;;;;;;;29.42;34.65;97099.38;5065141;28;20035;-34
2022/05/20 05:08:19;;;;;;;6.03;2.70;;;;;;;29.42;34.33;97098.50;5061569;28;20161;-38
2022/05/20 05:10:44;;;;;;;6.45;2.97;;;;;;;29.42;34.24;97102.00;5059846;28;20024;-33
2022/05/20 05:13:11;;;;;;;4.13;2.65;;;;;;;29.43;34.14;97100.19;5057216;28;20209;-33
2022/05/20 05:15:37;;;;;;;5.32;2.67;;;;;;;29.42;34.34;97099.38;5061246;28;20059;-33
2022/05/20 05:18:12;;;;;;;4.45;2.83;;;;;;;29.42;34.56;97099.38;5053730;28;20037;-30
2022/05/20 05:20:41;;;;;;;5.85;2.72;;;;;;;29.44;34.41;97101.88;5052546;28;20404;-31
2022/05/20 05:23:07;;;;;;;3.95;2.80;;;;;;;29.42;34.55;97099.38;5062069;28;20028;-32
2022/05/20 05:25:33;;;;;;;5.47;2.97;;;;;;;29.43;34.16;97102.84;5058100;28;20129;-32
2022/05/20 05:27:59;;;;;;;4.28;2.50;;;;;;;29.44;34.46;97115.94;5054575;28;20032;-32
2022/05/20 05:30:25;;;;;;;5.05;2.85;;;;;;;29.45;34.02;97108.88;5053738;28;20042;-31
2022/05/20 05:32:51;;;;;;;3.55;2.67;;;;;;;29.44;34.14;97118.59;5059557;28;20055;-36
2022/05/20 05:35:19;;;;;;;6.05;2.85;;;;;;;29.45;34.02;97109.72;5058248;28;20016;-32
2022/05/20 05:37:44;;;;;;;6.68;3.20;;;;;;;29.46;34.43;97122.00;5055387;28;20046;-32
2022/05/20 05:40:14;;;;;;;6.90;2.85;;;;;;;29.46;33.93;97114.06;5054383;28;20521;-33
2022/05/20 05:42:41;;;;;;;6.63;2.90;;;;;;;29.47;34.28;97113.13;5053410;28;20094;-34
2022/05/20 05:45:06;;;;;;;6.18;2.90;;;;;;;29.48;34.20;97113.94;5058689;28;20012;-32
2022/05/20 05:47:32;;;;;;;6.25;3.00;;;;;;;29.48;33.99;97114.81;5055581;28;20050;-32
2022/05/20 05:49:57;;;;;;;5.43;3.10;;;;;;;29.49;34.61;97107.75;5058710;28;20028;-34
2022/05/20 05:52:23;;;;;;;9.63;2.63;;;;;;;29.51;34.22;97118.19;5052515;28;20027;-33
2022/05/20 05:54:48;;;;;;;8.88;2.97;;;;;;;29.50;34.45;97112.06;5057618;28;20077;-31
2022/05/20 05:57:13;;;;;;;7.05;3.30;;;;;;;29.51;34.21;97104.97;5057257;28;20028;-31
2022/05/20 05:59:40;;;;;;;5.18;2.95;;;;;;;29.50;34.35;97101.50;5056370;28;20032;-31
2022/05/20 06:02:06;;;;;;;5.43;2.83;;;;;;;29.51;33.88;97107.63;5058551;28;20135;-29
2022/05/20 06:04:31;;;;;;;5.65;2.63;;;;;;;29.52;34.43;97104.09;5056072;28;20032;-31
2022/05/20 06:06:56;;;;;;;4.88;2.65;;;;;;;29.51;34.01;97103.22;5057861;28;21065;-31
2022/05/20 06:09:22;;;;;;;11.77;2.88;;;;;;;29.53;34.24;97095.22;5058838;28;20033;-32
2022/05/20 06:11:49;;;;;;;17.52;3.00;;;;;;;29.53;34.25;97095.22;5056536;28;20044;-32
2022/05/20 06:14:14;;;;;;;18.08;6.13;;;;;;;29.55;34.09;97088.03;5056097;28;20066;-31
2022/05/20 06:16:40;;;;;;;5.00;2.95;;;;;;;29.54;33.81;97102.19;5055003;28;20036;-31
2022/05/20 06:19:05;;;;;;;10.85;3.20;;;;;;;29.52;33.81;97097.00;5057807;28;20035;-33
2022/05/20 06:21:31;;;;;;;6.88;2.90;;;;;;;29.51;33.83;97102.34;5051599;28;20024;-32
2022/05/20 06:23:56;;;;;;;12.23;3.53;;;;;;;29.48;33.76;97098.09;5055013;28;20143;-33
2022/05/20 06:26:21;;;;;;;6.93;3.35;;;;;;;29.45;33.85;97099.16;5061803;28;20036;-32
2022/05/20 06:28:47;;;;;;;8.93;3.00;;;;;;;29.43;34.02;97095.78;5045104;28;20033;-34
2022/05/20 06:31:13;;;;;;;9.15;3.20;;;;;;;29.41;33.75;97097.66;5060061;28;20028;-31
2022/05/20 06:33:38;;;;;;;10.27;2.92;;;;;;;29.38;33.78;97095.22;5061342;28;20036;-32
2022/05/20 06:41:32;;;;;;;7.10;3.00;;;;;;;29.29;33.71;97098.44;5052039;28;20039;-33
2022/05/20 06:43:58;;;;;;;7.38;3.13;;;;;;;29.26;33.70;97106.56;5055484;28;20017;-35
2022/05/20 06:46:23;;;;;;;11.23;3.50;;;;;;;29.25;33.57;97094.31;5061302;28;20051;-34
2022/05/20 06:48:51;;;;;;;11.48;3.10;;;;;;;29.24;33.98;97100.50;5058645;28;20968;-31
2022/05/20 06:51:18;;;;;;;11.68;3.03;;;;;;;29.23;33.71;97101.47;5056745;28;20035;-32
2022/05/20 06:53:44;;;;;;;9.02;3.05;;;;;;;29.21;33.67;97097.13;5052121;28;20069;-36
2022/05/20 06:56:10;;;;;;;7.50;2.50;;;;;;;29.20;33.79;97100.72;5056462;28;20028;-34
2022/05/20 06:58:35;;;;;;;10.13;3.28;;;;;;;29.18;33.57;97102.59;5061827;28;20032;-32
2022/05/20 07:01:01;;;;;;;9.43;2.80;;;;;;;29.18;33.85;97094.66;5061873;28;20029;-32
2022/05/20 07:03:27;;;;;;;12.45;3.00;;;;;;;29.17;34.00;97095.63;5056748;28;20032;-36
2022/05/20 07:05:52;;;;;;;6.25;3.05;;;;;;;29.16;33.94;97096.56;5062311;28;20466;-37
2022/05/20 07:08:18;;;;;;;11.73;3.03;;;;;;;29.15;33.62;97097.53;5058099;28;20028;-33
2022/05/20 07:10:43;;;;;;;7.32;3.10;;;;;;;29.15;33.86;97099.31;5056089;28;20024;-33
2022/05/20 07:13:09;;;;;;;14.07;3.15;;;;;;;29.13;33.61;97091.47;5062426;28;20052;-32
2022/05/20 07:15:34;;;;;;;8.88;2.53;;;;;;;29.12;33.59;97097.72;5063482;28;20714;-31
2022/05/20 07:17:59;;;;;;;7.63;3.15;;;;;;;29.11;33.49;97096.03;5061638;28;20020;-41
2022/05/20 07:20:25;;;;;;;8.02;3.00;;;;;;;29.10;33.80;97093.47;5060735;28;20101;-32
2022/05/20 07:22:50;;;;;;;7.95;3.20;;;;;;;29.09;33.85;97089.97;5045777;28;20044;-34
2022/05/20 07:25:16;;;;;;;8.52;2.90;;;;;;;29.11;34.07;97095.16;5058527;28;20039;-32
2022/05/20 07:27:41;;;;;;;8.23;2.97;;;;;;;29.10;33.54;97086.38;5055809;28;20028;-38
2022/05/20 07:30:07;;;;;;;11.75;2.95;;;;;;;29.10;33.98;97089.03;5056144;28;20040;-31
2022/05/20 07:32:32;;;;;;;8.63;3.10;;;;;;;29.12;33.71;97081.00;5063401;28;20032;-35
2022/05/20 07:34:58;;;;;;;9.48;3.20;;;;;;;29.11;33.90;97080.19;5060468;28;20039;-35
2022/05/20 07:37:23;;;;;;;10.38;3.08;;;;;;;29.12;33.89;97076.59;5061069;28;20055;-31
2022/05/20 07:39:48;;;;;;;6.20;3.10;;;;;;;29.13;34.11;97078.28;5063695;28;20687;-33
2022/05/20 07:42:14;;;;;;;6.10;3.50;;;;;;;29.13;33.83;97075.66;5059890;28;20033;-32
2022/05/20 07:44:41;;;;;;;7.80;3.05;;;;;;;29.15;33.82;97070.28;5062729;28;20035;-31
2022/05/20 07:47:06;;;;;;;7.82;3.40;;;;;;;29.15;34.08;97071.13;5062741;28;20058;-30
2022/05/20 07:49:32;;;;;;;6.40;2.85;;;;;;;29.16;33.83;97072.81;5062647;28;20978;-34
2022/05/20 07:51:57;;;;;;;8.57;3.10;;;;;;;29.17;33.76;97069.22;5062555;28;20052;-31
2022/05/20 07:54:24;;;;;;;6.68;2.92;;;;;;;29.18;33.84;97076.19;5060389;28;20032;-34
2022/05/20 07:56:54;;;;;;;8.68;2.97;;;;;;;29.18;33.83;97076.19;5060655;28;20093;-31
2022/05/20 07:59:20;;;;;;;8.68;3.30;;;;;;;29.19;33.90;97083.19;5056005;28;20098;-32
2022/05/20 08:01:50;;;;;;;9.55;2.70;;;;;;;29.20;33.73;97074.31;5053771;28;20020;-33
2022/05/20 08:07:04;;;;;;;6.10;3.05;;;;;;;29.23;34.20;97069.78;5051354;28;20089;-31
2022/05/20 08:09:30;;;;;;;6.20;2.85;;;;;;;29.24;33.90;97064.41;5058655;28;20031;-34
2022/05/20 08:11:58;;;;;;;5.32;3.08;;;;;;;29.25;33.96;97057.34;5055141;28;20036;-32
2022/05/20 08:14:26;;;;;;;14.68;3.55;;;;;;;29.28;34.13;97059.78;5057447;28;20039;-31
2022/05/20 08:16:51;;;;;;;14.00;3.28;;;;;;;29.29;33.96;97058.84;5051697;28;20429;-33
2022/05/20 08:19:17;;;;;;;13.98;2.90;;;;;;;29.30;34.04;97058.72;5060082;28;20110;-37
2022/05/20 08:21:42;;;;;;;9.23;3.20;;;;;;;29.32;34.09;97058.63;5052710;28;20020;-33
2022/05/20 08:24:08;;;;;;;6.05;3.05;;;;;;;29.33;34.05;97049.81;5053049;28;20782;-33
2022/05/20 08:26:33;;;;;;;5.05;2.80;;;;;;;29.34;33.95;97049.69;5051997;28;20032;-31
2022/05/20 08:28:59;;;;;;;7.43;2.72;;;;;;;29.35;33.64;97045.25;5058868;28;20039;-33
2022/05/20 08:31:24;;;;;;;10.48;3.20;;;;;;;29.37;33.81;97040.72;5064413;28;20031;-34
2022/05/20 08:33:50;;;;;;;13.27;3.50;;;;;;;29.38;34.06;97047.72;5061936;28;20032;-33
2022/05/20 08:36:17;;;;;;;6.03;2.83;;;;;;;29.40;33.76;97048.44;5060452;28;20079;-31
2022/05/20 08:38:42;;;;;;;15.23;3.22;;;;;;;29.41;33.97;97044.84;5060400;28;20047;-32
2022/05/20 08:41:07;;;;;;;9.38;3.20;;;;;;;29.43;34.11;97045.63;5055374;28;20143;-34
2022/05/20 08:43:33;;;;;;;22.02;3.53;;;;;;;29.44;34.08;97044.66;5038737;28;20031;-34
2022/05/20 08:46:02;;;;;;;13.88;3.17;;;;;;;29.46;34.04;97036.66;5060652;28;20036;-32
2022/05/20 08:48:27;;;;;;;23.63;3.85;;;;;;;29.47;33.89;97039.19;5063106;28;20148;-37
2022/05/20 08:50:53;;;;;;;10.95;3.45;;;;;;;29.48;34.30;97030.31;5057155;28;20776;-31
2022/05/20 08:53:30;;;;;;;12.35;3.53;;;;;;;29.51;33.97;97028.41;5053956;28;20024;-43
2022/05/20 08:56:00;;;;;;;12.63;3.60;;;;;;;29.52;33.90;97027.53;5079194;28;20064;-34
2022/05/20 08:58:26;;;;;;;13.10;3.95;;;;;;;29.52;34.28;97024.88;5060368;28;20131;-34
2022/05/20 09:00:51;;;;;;;13.20;4.18;;;;;;;29.52;33.89;97025.72;5063953;28;20033;-39
2022/05/20 09:03:17;;;;;;;10.15;4.10;;;;;;;29.54;34.20;97028.25;5062416;28;20032;-30
2022/05/20 09:05:42;;;;;;;15.57;4.55;;;;;;;29.54;34.21;97021.19;5066736;28;20024;-32
2022/05/20 09:08:17;;;;;;;20.27;4.72;;;;;;;29.55;33.99;97011.47;5064450;28;20284;-30
2022/05/20 09:10:50;;;;;;;15.68;4.53;;;;;;;29.56;34.42;97021.09;5064022;28;20451;-32
2022/05/20 09:13:19;;;;;;;13.43;4.50;;;;;;;29.57;34.25;97017.50;5064287;28;20648;-31
2022/05/20 09:15:55;;;;;;;13.07;4.18;;;;;;;29.58;34.18;97029.75;5060972;28;20029;-33
2022/05/20 09:18:40;;;;;;;9.07;4.60;;;;;;;29.59;33.93;97010.31;5061071;28;20039;-31
2022/05/20 09:21:07;;;;;;;11.82;4.70;;;;;;;29.60;34.34;97001.47;5061113;28;20029;-32
2022/05/20 09:23:33;;;;;;;10.15;4.32;;;;;;;29.60;34.45;96996.19;5063899;28;20107;-32
2022/05/20 09:26:10;;;;;;;11.93;4.18;;;;;;;29.60;34.47;96986.44;5048270;28;20055;-31
2022/05/20 09:28:47;;;;;;;9.52;4.07;;;;;;;29.61;34.47;96976.75;5070637;28;20059;-32
2022/05/20 09:31:33;;;;;;;10.48;4.25;;;;;;;29.62;33.92;96978.44;5063062;28;20078;-33
2022/05/20 09:34:12;;;;;;;10.48;3.80;;;;;;;29.60;34.28;96980.34;5063430;28;20804;-33
2022/05/20 09:36:56;;;;;;;9.63;4.18;;;;;;;29.62;34.48;96975.78;5063079;28;20059;-29
2022/05/20 09:39:29;;;;;;;10.85;4.10;;;;;;;29.63;34.15;96969.56;5065053;28;20039;-30
2022/05/20 09:41:56;;;;;;;11.23;4.30;;;;;;;29.63;34.40;96953.72;5063124;28;20032;-31
2022/05/20 09:44:24;;;;;;;9.68;3.83;;;;;;;29.65;34.52;96950.97;5061098;28;20532;-31
2022/05/20 09:46:59;;;;;;;10.98;3.63;;;;;;;29.66;34.38;96955.28;5059419;28;20040;-32
2022/05/20 09:49:39;;;;;;;8.90;3.50;;;;;;;29.66;34.43;96947.38;5047236;28;20124;-31
2022/05/20 09:52:19;;;;;;;8.50;3.72;;;;;;;29.67;34.30;96949.91;5063767;28;20027;-29
2022/05/20 09:54:47;;;;;;;10.88;3.88;;;;;;;29.68;34.62;96956.88;5061105;28;20074;-31
2022/05/20 09:57:12;;;;;;;7.70;3.58;;;;;;;29.68;34.45;96956.06;5063231;28;20093;-31
2022/05/20 10:00:04;;;;;;;8.50;3.28;;;;;;;29.69;34.11;96939.25;5062491;28;20040;-33
2022/05/20 10:02:32;;;;;;;9.25;3.53;;;;;;;29.69;34.19;96953.31;5062565;28;20028;-29
2022/05/20 10:05:33;;;;;;;7.82;3.30;;;;;;;29.70;33.98;96943.56;5064195;28;20119;-31
2022/05/20 10:08:10;;;;;;;10.63;3.58;;;;;;;29.70;34.07;96938.28;5063104;28;20040;-32
2022/05/20 10:10:39;;;;;;;5.95;2.88;;;;;;;29.69;34.06;96926.91;5062815;28;20096;-30
2022/05/20 10:13:06;;;;;;;8.40;3.35;;;;;;;29.70;33.97;96939.16;5063003;28;20082;-31
2022/05/20 10:15:34;;;;;;;5.20;3.25;;;;;;;29.68;34.22;96935.75;5063474;28;20032;-32
2022/05/20 10:18:24;;;;;;;5.32;3.42;;;;;;;29.69;34.00;96932.19;5044283;28;20020;-31
2022/05/20 10:21:31;;;;;;;4.22;2.97;;;;;;;29.73;34.33;96940.75;5060051;28;20123;-31
2022/05/20 10:24:45;;;;;;;8.20;3.53;;;;;;;29.73;34.23;96940.75;5062373;28;20048;-31
2022/05/20 10:27:31;;;;;;;9.88;3.45;;;;;;;29.72;34.20;96937.25;5060735;28;20595;-33
2022/05/20 10:32:55;;;;;;;4.93;3.25;;;;;;;29.73;34.30;96933.69;5062896;28;20109;-35
2022/05/20 10:35:23;;;;;;;7.68;3.10;;;;;;;29.75;33.92;96935.34;5062920;28;20028;-31
2022/05/20 10:38:18;;;;;;;3.83;2.63;;;;;;;29.75;34.30;96936.19;5055422;28;20053;-32
2022/05/20 10:41:04;;;;;;;4.55;2.72;;;;;;;29.76;34.24;96921.19;5064813;28;20654;-30
2022/05/20 10:49:29;;;;;;;9.30;3.20;;;;;;;29.77;34.21;96912.31;5051596;28;20074;-31
2022/05/20 10:52:09;;;;;;;4.63;2.80;;;;;;;29.78;34.47;96914.03;5057267;28;20107;-30
2022/05/20 10:54:56;;;;;;;4.30;2.70;;;;;;;29.78;34.43;96906.09;5060177;28;20025;-31
2022/05/20 10:57:47;;;;;;;5.03;2.80;;;;;;;29.79;34.02;96905.16;5059921;28;20028;-33
2022/05/20 11:00:19;;;;;;;4.97;2.80;;;;;;;29.80;33.94;96904.19;5056759;28;20032;-32
2022/05/20 11:03:19;;;;;;;5.55;2.70;;;;;;;29.80;33.98;96894.47;5036761;28;20095;-29
2022/05/20 11:06:18;;;;;;;4.57;2.55;;;;;;;29.80;34.03;96883.06;5049410;28;21144;-31
2022/05/20 11:09:04;;;;;;;4.85;2.58;;;;;;;29.81;34.00;96887.38;5046344;28;20028;-31
2022/05/20 11:11:54;;;;;;;4.30;2.63;;;;;;;29.81;34.23;96868.91;5047050;28;20104;-33
2022/05/20 11:14:22;;;;;;;5.15;2.80;;;;;;;29.81;34.42;96858.31;5048358;28;20306;-32
2022/05/20 11:17:15;;;;;;;7.97;2.80;;;;;;;29.82;33.94;96841.53;5047862;28;20075;-33
2022/05/20 11:20:06;;;;;;;3.55;2.40;;;;;;;29.82;34.34;96828.31;5061326;28;20486;-29
2022/05/20 11:22:59;;;;;;;4.47;2.53;;;;;;;29.82;33.92;96823.03;5057344;28;20032;-30
2022/05/20 11:25:43;;;;;;;3.80;2.38;;;;;;;29.84;34.40;96824.66;5059368;28;20019;-31
2022/05/20 11:28:24;;;;;;;5.20;2.85;;;;;;;29.84;34.15;96813.22;5062229;28;20029;-31
2022/05/20 11:30:58;;;;;;;4.10;2.60;;;;;;;29.83;34.16;96803.63;5061398;28;20029;-38
2022/05/20 11:33:36;;;;;;;5.30;2.45;;;;;;;29.84;34.08;96802.66;5062977;28;20119;-30
2022/05/20 11:36:38;;;;;;;4.13;2.47;;;;;;;29.85;33.90;96783.22;5061213;28;20035;-33
2022/05/20 11:39:09;;;;;;;6.03;2.42;;;;;;;29.86;33.94;96763.75;5061663;28;20032;-30
2022/05/20 11:41:58;;;;;;;3.72;2.50;;;;;;;29.86;34.39;96742.63;5062975;28;20025;-31
2022/05/20 11:44:48;;;;;;;5.63;2.60;;;;;;;29.87;34.12;96757.53;5023495;28;20040;-33
2022/05/20 11:47:49;;;;;;;4.60;2.47;;;;;;;29.87;34.33;96762.81;5067895;28;20041;-32
2022/05/20 11:50:20;;;;;;;3.80;2.40;;;;;;;29.89;34.31;96757.41;5063440;28;20025;-30
2022/05/20 11:53:38;;;;;;;3.58;2.33;;;;;;;29.88;34.03;96756.59;5063754;28;20879;-31
2022/05/20 11:56:43;;;;;;;3.88;2.30;;;;;;;29.89;33.94;96750.34;5038370;28;20048;-30
2022/05/20 11:59:19;;;;;;;4.97;2.50;;;;;;;29.89;34.14;96742.41;4970116;28;20767;-32
2022/05/20 12:01:48;;;;;;;4.82;2.40;;;;;;;29.90;34.53;96744.09;4987667;28;20153;-30
2022/05/20 12:04:13;;;;;;;3.80;2.28;;;;;;;29.90;34.00;96738.81;5025220;28;20047;-34
2022/05/20 12:06:50;;;;;;;3.40;2.33;;;;;;;29.90;34.26;96728.25;5062218;28;20079;-33
2022/05/20 12:09:25;;;;;;;4.18;2.10;;;;;;;29.92;34.27;96723.72;5063955;28;20173;-33
2022/05/20 12:12:11;;;;;;;2.28;2.05;;;;;;;29.92;34.01;96715.78;5064636;28;20037;-32
2022/05/20 12:15:14;;;;;;;2.85;2.15;;;;;;;29.93;34.22;96706.91;5057545;28;20032;-32
2022/05/20 12:17:45;;;;;;;4.53;2.22;;;;;;;29.94;34.25;96713.03;5053917;28;20612;-34
2022/05/20 12:26:00;;;;;;;4.18;2.20;;;;;;;29.96;33.98;96696.13;5031325;28;20085;-31
2022/05/20 12:28:25;;;;;;;;;;;;;;;29.95;34.22;96691.75;5031366;28;20594;-34